Sandia Park, NM (87047)

11:39 AM MST on February 19, 2017 (GMT -0700)
San Pedro Creek | | Change Station

Elev 6620 ft 35.23 °N, 106.33 °W | Updated 7 seconds ago

Mostly Cloudy
Mostly Cloudy
45.1 °F
Feels Like 40 °F
N
10.3
Wind Variable Wind from SE
Gusts 12.3 mph

Today
High -- | Low -- °F
--% Chance of Precip.
Yesterday
High -- | Low -- °F
Precip. -- in
Pressure 29.82 in
Visibility 10.0 miles
Clouds Few 1800 ft
Mostly Cloudy 2100 ft
Mostly Cloudy 2900 ft
Windchill 40 °F
Dew Point 28 °F
Humidity 50%
Rainfall 0.00 in
Snow Depth Not available.
6:46 AM 5:51 PM
Last Quarter, 41% visible
METAR KABQ 191752Z 19009KT 10SM FEW018 BKN021 BKN029 07/04 A2989 RMK AO2 SLP098 MTNS OBSC NE 60001 T00720039 10078 20039 50006
Pressure 29.82 in
Visibility 10.0 miles
Clouds Few 1800 ft
Mostly Cloudy 2100 ft
Mostly Cloudy 2900 ft
Windchill 40 °F
Dew Point 28 °F
Humidity 50%
Rainfall 0.00 in
Snow Depth Not available.
6:46 AM 5:51 PM
Last Quarter, 41% visible
METAR KABQ 191752Z 19009KT 10SM FEW018 BKN021 BKN029 07/04 A2989 RMK AO2 SLP098 MTNS OBSC NE 60001 T00720039 10078 20039 50006

Get Your Daily Forecast Email!

Thanks for signing up!

Be on the lookout for a verification email in your inbox.

You'll start receiving the daily forecast at 8 AM.

×

10-Day Weather Forecast

Almanac

Astronomy

Feb. 19, 2017 Rise Set
Actual Time
Civil Twilight
Nautical Twilight
Astronomical Twilight
Moon
Length of Visible Light
Length of Day
Tomorrow will be .
, % of the Moon is Illuminated

Today's Extremes

State Highs State Lows

Community

WunderPhotos

Upload Photos

1,962,540 photos uploaded!

WunderBlog® & News

Nearby

Air Quality

  Air Quality AQ Index Pollutant
Not available.

Snow Depth

Station Depth Elevation

Earthquake Activity

City Distance Mag. Time & Date
Minimum magnitude displayed is 2.5.

Coastal Water Temperatures

Place Temperature

Stations

Nearby Weather Stations

Station Location Temp. Windchill Dew Point Humidity Wind Precip. Elev Updated Type
                   

Watches & Warnings

There are currently no watches in effect.